sensor_id;sensor_type;location;lat;lon;timestamp;temperature;humidity
18153;DHT22;9202;51.578;7.734;2023-12-04T00:01:05;0.60;99.90
18153;DHT22;9202;51.578;7.734;2023-12-04T00:03:07;0.60;99.90
18153;DHT22;9202;51.578;7.734;2023-12-04T00:05:10;0.60;99.90
18153;DHT22;9202;51.578;7.734;2023-12-04T00:07:13;0.70;99.90
18153;DHT22;9202;51.578;7.734;2023-12-04T00:09:15;0.70;99.90
18153;DHT22;9202;51.578;7.734;2023-12-04T00:11:18;0.80;99.90
18153;DHT22;9202;51.578;7.734;2023-12-04T00:13:21;0.80;99.90
18153;DHT22;9202;51.578;7.734;2023-12-04T00:15:23;0.80;99.90
18153;DHT22;9202;51.578;7.734;2023-12-04T00:17:26;0.80;99.90
18153;DHT22;9202;51.578;7.734;2023-12-04T00:19:41;0.80;99.90
18153;DHT22;9202;51.578;7.734;2023-12-04T00:21:44;0.80;99.90
18153;DHT22;9202;51.578;7.734;2023-12-04T00:23:46;0.80;99.90
18153;DHT22;9202;51.578;7.734;2023-12-04T00:25:49;0.60;99.90
18153;DHT22;9202;51.578;7.734;2023-12-04T00:27:51;0.80;99.90
18153;DHT22;9202;51.578;7.734;2023-12-04T00:29:55;0.80;99.90
18153;DHT22;9202;51.578;7.734;2023-12-04T00:31:58;0.80;99.90
18153;DHT22;9202;51.578;7.734;2023-12-04T00:34:00;0.80;99.90
18153;DHT22;9202;51.578;7.734;2023-12-04T00:36:04;0.80;99.90
18153;DHT22;9202;51.578;7.734;2023-12-04T00:38:07;0.80;99.90
18153;DHT22;9202;51.578;7.734;2023-12-04T00:40:10;0.90;99.90
18153;DHT22;9202;51.578;7.734;2023-12-04T00:42:12;0.80;99.90
18153;DHT22;9202;51.578;7.734;2023-12-04T00:44:15;0.90;99.90
18153;DHT22;9202;51.578;7.734;2023-12-04T00:46:18;0.90;99.90
18153;DHT22;9202;51.578;7.734;2023-12-04T00:48:20;0.90;99.90
18153;DHT22;9202;51.578;7.734;2023-12-04T00:50:23;0.80;99.90
18153;DHT22;9202;51.578;7.734;2023-12-04T00:52:26;0.80;99.90
18153;DHT22;9202;51.578;7.734;2023-12-04T00:54:29;0.90;99.90
18153;DHT22;9202;51.578;7.734;2023-12-04T00:56:31;0.90;99.90
18153;DHT22;9202;51.578;7.734;2023-12-04T00:58:34;0.90;99.90
18153;DHT22;9202;51.578;7.734;2023-12-04T01:00:37;0.90;99.90
18153;DHT22;9202;51.578;7.734;2023-12-04T01:02:40;0.90;99.90
18153;DHT22;9202;51.578;7.734;2023-12-04T01:04:43;0.90;99.90
18153;DHT22;9202;51.578;7.734;2023-12-04T01:06:46;0.90;99.90
18153;DHT22;9202;51.578;7.734;2023-12-04T01:08:49;0.90;99.90
18153;DHT22;9202;51.578;7.734;2023-12-04T01:10:53;0.80;99.90
18153;DHT22;9202;51.578;7.734;2023-12-04T01:12:56;0.80;99.90
18153;DHT22;9202;51.578;7.734;2023-12-04T01:14:59;0.80;99.90
18153;DHT22;9202;51.578;7.734;2023-12-04T01:17:02;0.80;99.90
18153;DHT22;9202;51.578;7.734;2023-12-04T01:19:05;0.70;99.90
18153;DHT22;9202;51.578;7.734;2023-12-04T01:21:08;0.70;99.90
18153;DHT22;9202;51.578;7.734;2023-12-04T01:23:11;0.80;99.90
18153;DHT22;9202;51.578;7.734;2023-12-04T01:25:14;0.80;99.90
18153;DHT22;9202;51.578;7.734;2023-12-04T01:27:17;0.90;99.90
18153;DHT22;9202;51.578;7.734;2023-12-04T01:29:19;0.90;99.90
18153;DHT22;9202;51.578;7.734;2023-12-04T01:31:22;0.90;99.90
18153;DHT22;9202;51.578;7.734;2023-12-04T01:33:24;0.90;99.90
18153;DHT22;9202;51.578;7.734;2023-12-04T01:35:27;1.00;99.90
18153;DHT22;9202;51.578;7.734;2023-12-04T01:37:30;0.90;99.90
18153;DHT22;9202;51.578;7.734;2023-12-04T01:39:32;0.90;99.90
18153;DHT22;9202;51.578;7.734;2023-12-04T01:41:35;0.80;99.90
18153;DHT22;9202;51.578;7.734;2023-12-04T01:43:37;0.80;99.90
18153;DHT22;9202;51.578;7.734;2023-12-04T01:45:40;0.80;99.90
18153;DHT22;9202;51.578;7.734;2023-12-04T01:47:43;0.90;99.90
18153;DHT22;9202;51.578;7.734;2023-12-04T01:49:47;1.00;99.90
18153;DHT22;9202;51.578;7.734;2023-12-04T01:51:50;1.10;99.90
18153;DHT22;9202;51.578;7.734;2023-12-04T01:53:53;1.20;99.90
18153;DHT22;9202;51.578;7.734;2023-12-04T01:55:56;1.30;99.90
18153;DHT22;9202;51.578;7.734;2023-12-04T01:57:58;1.40;99.90
18153;DHT22;9202;51.578;7.734;2023-12-04T02:00:02;1.40;99.90
18153;DHT22;9202;51.578;7.734;2023-12-04T02:02:07;1.40;99.90
18153;DHT22;9202;51.578;7.734;2023-12-04T02:04:09;1.30;99.90
18153;DHT22;9202;51.578;7.734;2023-12-04T02:06:12;1.40;99.90
18153;DHT22;9202;51.578;7.734;2023-12-04T02:08:15;1.40;99.90
18153;DHT22;9202;51.578;7.734;2023-12-04T02:10:17;1.30;99.90
18153;DHT22;9202;51.578;7.734;2023-12-04T02:12:20;1.30;99.90
18153;DHT22;9202;51.578;7.734;2023-12-04T02:16:42;1.40;99.90
18153;DHT22;9202;51.578;7.734;2023-12-04T02:18:45;1.40;99.90
18153;DHT22;9202;51.578;7.734;2023-12-04T02:20:48;1.30;99.90
18153;DHT22;9202;51.578;7.734;2023-12-04T02:22:51;1.40;99.90
18153;DHT22;9202;51.578;7.734;2023-12-04T02:24:53;1.40;99.90
18153;DHT22;9202;51.578;7.734;2023-12-04T02:26:59;1.30;99.90
18153;DHT22;9202;51.578;7.734;2023-12-04T02:29:03;1.40;99.90
18153;DHT22;9202;51.578;7.734;2023-12-04T02:31:06;1.50;99.90
18153;DHT22;9202;51.578;7.734;2023-12-04T02:33:10;1.40;99.90
18153;DHT22;9202;51.578;7.734;2023-12-04T02:35:14;1.40;99.90
18153;DHT22;9202;51.578;7.734;2023-12-04T02:37:16;1.40;99.90
18153;DHT22;9202;51.578;7.734;2023-12-04T02:39:19;1.40;99.90
18153;DHT22;9202;51.578;7.734;2023-12-04T02:41:22;1.50;99.90
18153;DHT22;9202;51.578;7.734;2023-12-04T02:43:25;1.50;99.90
18153;DHT22;9202;51.578;7.734;2023-12-04T02:45:27;1.60;99.90
18153;DHT22;9202;51.578;7.734;2023-12-04T02:47:30;1.50;99.90
18153;DHT22;9202;51.578;7.734;2023-12-04T02:49:32;1.50;99.90
18153;DHT22;9202;51.578;7.734;2023-12-04T02:51:35;1.50;99.90
18153;DHT22;9202;51.578;7.734;2023-12-04T02:53:38;1.50;99.90
18153;DHT22;9202;51.578;7.734;2023-12-04T02:55:40;1.60;99.90
18153;DHT22;9202;51.578;7.734;2023-12-04T02:57:43;1.60;99.90
18153;DHT22;9202;51.578;7.734;2023-12-04T02:59:45;1.60;99.90
18153;DHT22;9202;51.578;7.734;2023-12-04T03:01:48;1.70;99.90
18153;DHT22;9202;51.578;7.734;2023-12-04T03:03:51;1.70;99.90
18153;DHT22;9202;51.578;7.734;2023-12-04T03:05:53;1.80;99.90
18153;DHT22;9202;51.578;7.734;2023-12-04T03:07:56;1.80;99.90
18153;DHT22;9202;51.578;7.734;2023-12-04T03:10:00;1.50;99.90
18153;DHT22;9202;51.578;7.734;2023-12-04T03:12:04;1.90;99.90
18153;DHT22;9202;51.578;7.734;2023-12-04T03:14:06;1.90;99.90
18153;DHT22;9202;51.578;7.734;2023-12-04T03:16:15;1.90;99.90
18153;DHT22;9202;51.578;7.734;2023-12-04T03:18:18;1.90;99.90
18153;DHT22;9202;51.578;7.734;2023-12-04T03:20:20;2.00;99.90
18153;DHT22;9202;51.578;7.734;2023-12-04T03:22:23;2.00;99.90
18153;DHT22;9202;51.578;7.734;2023-12-04T03:24:26;2.10;99.90
18153;DHT22;9202;51.578;7.734;2023-12-04T03:26:29;2.00;99.90
18153;DHT22;9202;51.578;7.734;2023-12-04T03:28:32;2.00;99.90
18153;DHT22;9202;51.578;7.734;2023-12-04T03:30:35;2.00;99.90
18153;DHT22;9202;51.578;7.734;2023-12-04T03:32:38;2.10;99.90
18153;DHT22;9202;51.578;7.734;2023-12-04T03:34:40;2.10;99.90
18153;DHT22;9202;51.578;7.734;2023-12-04T03:36:43;2.10;99.90
18153;DHT22;9202;51.578;7.734;2023-12-04T03:38:46;2.10;99.90
18153;DHT22;9202;51.578;7.734;2023-12-04T03:40:48;2.10;99.90
18153;DHT22;9202;51.578;7.734;2023-12-04T03:42:51;2.10;99.90
18153;DHT22;9202;51.578;7.734;2023-12-04T03:44:53;2.30;99.90
18153;DHT22;9202;51.578;7.734;2023-12-04T03:46:56;2.30;99.90
18153;DHT22;9202;51.578;7.734;2023-12-04T03:48:59;2.20;99.90
18153;DHT22;9202;51.578;7.734;2023-12-04T03:51:02;2.30;99.90
18153;DHT22;9202;51.578;7.734;2023-12-04T03:53:04;2.30;99.90
18153;DHT22;9202;51.578;7.734;2023-12-04T03:55:08;2.30;99.90
18153;DHT22;9202;51.578;7.734;2023-12-04T03:57:11;2.30;99.90
18153;DHT22;9202;51.578;7.734;2023-12-04T03:59:13;2.30;99.90
18153;DHT22;9202;51.578;7.734;2023-12-04T04:01:16;2.70;99.90
18153;DHT22;9202;51.578;7.734;2023-12-04T04:03:18;2.30;99.90
18153;DHT22;9202;51.578;7.734;2023-12-04T04:05:21;2.20;99.90
18153;DHT22;9202;51.578;7.734;2023-12-04T04:07:24;2.20;99.90
18153;DHT22;9202;51.578;7.734;2023-12-04T04:09:26;2.20;99.90
18153;DHT22;9202;51.578;7.734;2023-12-04T04:11:29;2.20;99.90
18153;DHT22;9202;51.578;7.734;2023-12-04T04:13:33;2.20;99.90
18153;DHT22;9202;51.578;7.734;2023-12-04T04:15:35;2.30;99.90
18153;DHT22;9202;51.578;7.734;2023-12-04T04:17:38;2.30;99.90
18153;DHT22;9202;51.578;7.734;2023-12-04T04:19:41;2.40;99.90
18153;DHT22;9202;51.578;7.734;2023-12-04T04:21:43;2.30;99.90
18153;DHT22;9202;51.578;7.734;2023-12-04T04:23:46;2.40;99.90
18153;DHT22;9202;51.578;7.734;2023-12-04T04:25:48;2.30;99.90
18153;DHT22;9202;51.578;7.734;2023-12-04T04:27:51;2.40;99.90
18153;DHT22;9202;51.578;7.734;2023-12-04T04:29:54;2.30;99.90
18153;DHT22;9202;51.578;7.734;2023-12-04T04:31:56;2.40;99.90
18153;DHT22;9202;51.578;7.734;2023-12-04T04:33:59;2.40;99.90
18153;DHT22;9202;51.578;7.734;2023-12-04T04:36:02;2.40;99.90
18153;DHT22;9202;51.578;7.734;2023-12-04T04:38:04;2.30;99.90
18153;DHT22;9202;51.578;7.734;2023-12-04T04:40:07;2.40;99.90
18153;DHT22;9202;51.578;7.734;2023-12-04T04:42:10;2.30;99.90
18153;DHT22;9202;51.578;7.734;2023-12-04T04:44:13;2.40;99.90
18153;DHT22;9202;51.578;7.734;2023-12-04T04:46:15;2.30;99.90
18153;DHT22;9202;51.578;7.734;2023-12-04T04:48:18;2.40;99.90
18153;DHT22;9202;51.578;7.734;2023-12-04T04:50:21;2.40;99.90
18153;DHT22;9202;51.578;7.734;2023-12-04T04:52:24;2.40;99.90
18153;DHT22;9202;51.578;7.734;2023-12-04T04:54:31;2.40;99.90
18153;DHT22;9202;51.578;7.734;2023-12-04T04:56:34;2.30;99.90
18153;DHT22;9202;51.578;7.734;2023-12-04T04:58:36;2.30;99.90
18153;DHT22;9202;51.578;7.734;2023-12-04T05:00:39;2.30;99.90
18153;DHT22;9202;51.578;7.734;2023-12-04T05:02:42;2.30;99.90
18153;DHT22;9202;51.578;7.734;2023-12-04T05:04:44;2.30;99.90
18153;DHT22;9202;51.578;7.734;2023-12-04T05:06:47;2.30;99.90
18153;DHT22;9202;51.578;7.734;2023-12-04T05:08:50;2.30;99.90
18153;DHT22;9202;51.578;7.734;2023-12-04T05:10:54;2.30;99.90
18153;DHT22;9202;51.578;7.734;2023-12-04T05:12:56;2.30;99.90
18153;DHT22;9202;51.578;7.734;2023-12-04T05:14:59;2.30;99.90
18153;DHT22;9202;51.578;7.734;2023-12-04T05:17:01;2.30;99.90
18153;DHT22;9202;51.578;7.734;2023-12-04T05:19:04;2.30;99.90
18153;DHT22;9202;51.578;7.734;2023-12-04T05:21:08;2.20;99.90
18153;DHT22;9202;51.578;7.734;2023-12-04T05:23:11;2.20;99.90
18153;DHT22;9202;51.578;7.734;2023-12-04T05:25:14;2.20;99.90
18153;DHT22;9202;51.578;7.734;2023-12-04T05:27:17;2.20;99.90
18153;DHT22;9202;51.578;7.734;2023-12-04T05:29:19;2.20;99.90
18153;DHT22;9202;51.578;7.734;2023-12-04T05:31:22;2.20;99.90
18153;DHT22;9202;51.578;7.734;2023-12-04T05:33:25;2.20;99.90
18153;DHT22;9202;51.578;7.734;2023-12-04T05:35:28;2.20;99.90
18153;DHT22;9202;51.578;7.734;2023-12-04T05:37:30;2.20;99.90
18153;DHT22;9202;51.578;7.734;2023-12-04T05:41:49;2.40;99.90
18153;DHT22;9202;51.578;7.734;2023-12-04T05:43:52;2.40;99.90
18153;DHT22;9202;51.578;7.734;2023-12-04T05:45:55;2.30;99.90
18153;DHT22;9202;51.578;7.734;2023-12-04T05:47:57;2.30;99.90
18153;DHT22;9202;51.578;7.734;2023-12-04T05:50:00;2.30;99.90
18153;DHT22;9202;51.578;7.734;2023-12-04T05:52:03;2.30;99.90
18153;DHT22;9202;51.578;7.734;2023-12-04T05:54:06;2.30;99.90
18153;DHT22;9202;51.578;7.734;2023-12-04T05:56:10;2.20;99.90
18153;DHT22;9202;51.578;7.734;2023-12-04T05:58:12;2.20;99.90
18153;DHT22;9202;51.578;7.734;2023-12-04T06:00:15;2.20;99.90
18153;DHT22;9202;51.578;7.734;2023-12-04T06:02:18;2.20;99.90
18153;DHT22;9202;51.578;7.734;2023-12-04T06:04:21;2.30;99.90
18153;DHT22;9202;51.578;7.734;2023-12-04T06:06:24;2.30;99.90
18153;DHT22;9202;51.578;7.734;2023-12-04T06:08:26;2.30;99.90
18153;DHT22;9202;51.578;7.734;2023-12-04T06:10:29;2.20;99.90
18153;DHT22;9202;51.578;7.734;2023-12-04T06:12:32;2.20;99.90
18153;DHT22;9202;51.578;7.734;2023-12-04T06:14:34;2.20;99.90
18153;DHT22;9202;51.578;7.734;2023-12-04T06:16:37;2.20;99.90
18153;DHT22;9202;51.578;7.734;2023-12-04T06:18:40;2.20;99.90
18153;DHT22;9202;51.578;7.734;2023-12-04T06:20:42;2.30;99.90
18153;DHT22;9202;51.578;7.734;2023-12-04T06:22:45;2.20;99.90
18153;DHT22;9202;51.578;7.734;2023-12-04T06:24:49;2.20;99.90
18153;DHT22;9202;51.578;7.734;2023-12-04T06:26:52;2.20;99.90
18153;DHT22;9202;51.578;7.734;2023-12-04T06:28:55;2.10;99.90
18153;DHT22;9202;51.578;7.734;2023-12-04T06:30:59;2.10;99.90
18153;DHT22;9202;51.578;7.734;2023-12-04T06:33:03;2.10;99.90
18153;DHT22;9202;51.578;7.734;2023-12-04T06:35:07;2.10;99.90
18153;DHT22;9202;51.578;7.734;2023-12-04T06:37:10;2.10;99.90
18153;DHT22;9202;51.578;7.734;2023-12-04T06:39:13;2.00;99.90
18153;DHT22;9202;51.578;7.734;2023-12-04T06:41:18;2.00;99.90
18153;DHT22;9202;51.578;7.734;2023-12-04T06:43:23;2.00;99.90
18153;DHT22;9202;51.578;7.734;2023-12-04T06:45:27;2.20;99.90
18153;DHT22;9202;51.578;7.734;2023-12-04T06:47:31;2.20;99.90
18153;DHT22;9202;51.578;7.734;2023-12-04T06:49:34;2.30;99.90
18153;DHT22;9202;51.578;7.734;2023-12-04T06:51:37;2.40;99.90
18153;DHT22;9202;51.578;7.734;2023-12-04T06:53:39;2.40;99.90
18153;DHT22;9202;51.578;7.734;2023-12-04T06:55:42;2.50;99.90
18153;DHT22;9202;51.578;7.734;2023-12-04T06:57:45;2.40;99.90
18153;DHT22;9202;51.578;7.734;2023-12-04T06:59:47;2.50;99.90
18153;DHT22;9202;51.578;7.734;2023-12-04T07:01:50;2.70;99.90
18153;DHT22;9202;51.578;7.734;2023-12-04T07:03:53;2.70;99.90
18153;DHT22;9202;51.578;7.734;2023-12-04T07:05:56;2.60;99.90
18153;DHT22;9202;51.578;7.734;2023-12-04T07:07:58;2.50;99.90
18153;DHT22;9202;51.578;7.734;2023-12-04T07:10:01;2.50;99.90
18153;DHT22;9202;51.578;7.734;2023-12-04T07:12:04;2.40;99.90
18153;DHT22;9202;51.578;7.734;2023-12-04T07:14:07;2.50;99.90
18153;DHT22;9202;51.578;7.734;2023-12-04T07:16:10;2.40;99.90
18153;DHT22;9202;51.578;7.734;2023-12-04T07:18:12;2.40;99.90
18153;DHT22;9202;51.578;7.734;2023-12-04T07:20:15;2.50;99.90
18153;DHT22;9202;51.578;7.734;2023-12-04T07:22:18;2.50;99.90
18153;DHT22;9202;51.578;7.734;2023-12-04T07:24:20;2.60;99.90
18153;DHT22;9202;51.578;7.734;2023-12-04T07:26:23;2.50;99.90
18153;DHT22;9202;51.578;7.734;2023-12-04T07:28:25;2.60;99.90
18153;DHT22;9202;51.578;7.734;2023-12-04T07:30:28;2.50;99.90
18153;DHT22;9202;51.578;7.734;2023-12-04T07:32:31;2.50;99.90
18153;DHT22;9202;51.578;7.734;2023-12-04T07:34:34;2.50;99.90
18153;DHT22;9202;51.578;7.734;2023-12-04T07:36:37;2.50;99.90
18153;DHT22;9202;51.578;7.734;2023-12-04T07:38:40;2.50;99.90
18153;DHT22;9202;51.578;7.734;2023-12-04T07:42:57;2.50;99.90
18153;DHT22;9202;51.578;7.734;2023-12-04T07:45:00;2.40;99.90
18153;DHT22;9202;51.578;7.734;2023-12-04T07:47:03;2.40;99.90
18153;DHT22;9202;51.578;7.734;2023-12-04T07:49:05;2.40;99.90
18153;DHT22;9202;51.578;7.734;2023-12-04T07:51:08;2.40;99.90
18153;DHT22;9202;51.578;7.734;2023-12-04T07:53:11;2.40;99.90
18153;DHT22;9202;51.578;7.734;2023-12-04T07:55:15;2.40;99.90
18153;DHT22;9202;51.578;7.734;2023-12-04T07:57:18;2.40;99.90
18153;DHT22;9202;51.578;7.734;2023-12-04T07:59:30;2.40;99.90
18153;DHT22;9202;51.578;7.734;2023-12-04T08:01:56;2.50;99.90
18153;DHT22;9202;51.578;7.734;2023-12-04T08:03:58;2.50;99.90
18153;DHT22;9202;51.578;7.734;2023-12-04T08:06:01;2.60;99.90
18153;DHT22;9202;51.578;7.734;2023-12-04T08:08:17;2.60;99.90
18153;DHT22;9202;51.578;7.734;2023-12-04T08:10:19;2.60;99.90
18153;DHT22;9202;51.578;7.734;2023-12-04T08:12:23;2.60;99.90
18153;DHT22;9202;51.578;7.734;2023-12-04T08:14:27;2.60;99.90
18153;DHT22;9202;51.578;7.734;2023-12-04T08:16:29;2.60;99.90
18153;DHT22;9202;51.578;7.734;2023-12-04T08:18:32;2.60;99.90
18153;DHT22;9202;51.578;7.734;2023-12-04T08:20:39;2.60;99.90
18153;DHT22;9202;51.578;7.734;2023-12-04T08:22:53;2.50;99.90
18153;DHT22;9202;51.578;7.734;2023-12-04T08:24:57;2.60;99.90
18153;DHT22;9202;51.578;7.734;2023-12-04T08:27:00;2.60;99.90
18153;DHT22;9202;51.578;7.734;2023-12-04T08:29:03;2.60;99.90
18153;DHT22;9202;51.578;7.734;2023-12-04T08:31:06;2.60;99.90
18153;DHT22;9202;51.578;7.734;2023-12-04T08:33:10;2.60;99.90
18153;DHT22;9202;51.578;7.734;2023-12-04T08:35:13;2.60;99.90
18153;DHT22;9202;51.578;7.734;2023-12-04T08:37:15;2.60;99.90
18153;DHT22;9202;51.578;7.734;2023-12-04T08:39:19;2.60;99.90
18153;DHT22;9202;51.578;7.734;2023-12-04T08:41:23;2.60;99.90
18153;DHT22;9202;51.578;7.734;2023-12-04T08:43:25;2.50;99.90
18153;DHT22;9202;51.578;7.734;2023-12-04T08:45:28;2.60;99.90
18153;DHT22;9202;51.578;7.734;2023-12-04T08:47:31;2.60;99.90
18153;DHT22;9202;51.578;7.734;2023-12-04T08:49:33;2.60;99.90
18153;DHT22;9202;51.578;7.734;2023-12-04T08:51:38;2.60;99.90
18153;DHT22;9202;51.578;7.734;2023-12-04T08:53:40;2.60;99.90
18153;DHT22;9202;51.578;7.734;2023-12-04T08:55:43;2.70;99.90
18153;DHT22;9202;51.578;7.734;2023-12-04T08:57:46;2.70;99.90
18153;DHT22;9202;51.578;7.734;2023-12-04T08:59:49;2.60;99.90
18153;DHT22;9202;51.578;7.734;2023-12-04T09:01:51;2.70;99.90
18153;DHT22;9202;51.578;7.734;2023-12-04T09:03:54;2.70;99.90
18153;DHT22;9202;51.578;7.734;2023-12-04T09:05:58;2.70;99.90
18153;DHT22;9202;51.578;7.734;2023-12-04T09:08:04;2.60;99.90
18153;DHT22;9202;51.578;7.734;2023-12-04T09:10:09;2.60;99.90
18153;DHT22;9202;51.578;7.734;2023-12-04T09:12:14;2.70;99.90
18153;DHT22;9202;51.578;7.734;2023-12-04T09:14:18;2.60;99.90
18153;DHT22;9202;51.578;7.734;2023-12-04T09:16:22;2.70;99.90
18153;DHT22;9202;51.578;7.734;2023-12-04T09:18:25;2.60;99.90
18153;DHT22;9202;51.578;7.734;2023-12-04T09:20:28;2.70;99.90
18153;DHT22;9202;51.578;7.734;2023-12-04T09:24:48;2.90;99.90
18153;DHT22;9202;51.578;7.734;2023-12-04T09:26:50;2.90;99.90
18153;DHT22;9202;51.578;7.734;2023-12-04T09:28:53;2.90;99.90
18153;DHT22;9202;51.578;7.734;2023-12-04T09:30:55;2.90;99.90
18153;DHT22;9202;51.578;7.734;2023-12-04T09:32:58;3.00;99.90
18153;DHT22;9202;51.578;7.734;2023-12-04T09:35:01;3.00;99.90
18153;DHT22;9202;51.578;7.734;2023-12-04T09:37:04;3.00;99.90
18153;DHT22;9202;51.578;7.734;2023-12-04T09:39:08;3.00;99.90
18153;DHT22;9202;51.578;7.734;2023-12-04T09:41:12;3.00;99.90
18153;DHT22;9202;51.578;7.734;2023-12-04T09:43:15;3.10;99.90
18153;DHT22;9202;51.578;7.734;2023-12-04T09:45:18;3.20;99.90
18153;DHT22;9202;51.578;7.734;2023-12-04T09:47:20;3.20;99.90
18153;DHT22;9202;51.578;7.734;2023-12-04T09:49:23;3.20;99.90
18153;DHT22;9202;51.578;7.734;2023-12-04T09:51:28;3.20;99.90
18153;DHT22;9202;51.578;7.734;2023-12-04T09:53:30;3.10;99.90
18153;DHT22;9202;51.578;7.734;2023-12-04T09:55:34;3.10;99.90
18153;DHT22;9202;51.578;7.734;2023-12-04T09:57:36;3.00;99.90
18153;DHT22;9202;51.578;7.734;2023-12-04T09:59:39;3.00;99.90
18153;DHT22;9202;51.578;7.734;2023-12-04T10:01:42;3.00;99.90
18153;DHT22;9202;51.578;7.734;2023-12-04T10:03:45;3.00;99.90
18153;DHT22;9202;51.578;7.734;2023-12-04T10:05:48;3.00;99.90
18153;DHT22;9202;51.578;7.734;2023-12-04T10:07:51;3.00;99.90
18153;DHT22;9202;51.578;7.734;2023-12-04T10:09:54;3.00;99.90
18153;DHT22;9202;51.578;7.734;2023-12-04T10:11:56;3.00;99.90
18153;DHT22;9202;51.578;7.734;2023-12-04T10:13:59;3.00;99.90
18153;DHT22;9202;51.578;7.734;2023-12-04T10:16:02;3.00;99.90
18153;DHT22;9202;51.578;7.734;2023-12-04T10:18:06;2.80;99.90
18153;DHT22;9202;51.578;7.734;2023-12-04T10:20:11;2.90;99.90
18153;DHT22;9202;51.578;7.734;2023-12-04T10:22:14;2.90;99.90
18153;DHT22;9202;51.578;7.734;2023-12-04T10:24:30;2.90;99.90
18153;DHT22;9202;51.578;7.734;2023-12-04T10:26:36;2.90;99.90
18153;DHT22;9202;51.578;7.734;2023-12-04T10:28:42;2.60;99.90
18153;DHT22;9202;51.578;7.734;2023-12-04T10:30:45;2.80;99.90
18153;DHT22;9202;51.578;7.734;2023-12-04T10:32:49;2.90;99.90
18153;DHT22;9202;51.578;7.734;2023-12-04T10:34:53;2.80;99.90
18153;DHT22;9202;51.578;7.734;2023-12-04T10:36:58;2.80;99.90
18153;DHT22;9202;51.578;7.734;2023-12-04T10:39:02;2.90;99.90
18153;DHT22;9202;51.578;7.734;2023-12-04T10:41:12;2.80;99.90
18153;DHT22;9202;51.578;7.734;2023-12-04T10:43:15;2.80;99.90
18153;DHT22;9202;51.578;7.734;2023-12-04T10:45:19;2.80;99.90
18153;DHT22;9202;51.578;7.734;2023-12-04T10:47:24;2.90;99.90
18153;DHT22;9202;51.578;7.734;2023-12-04T10:49:28;2.80;99.90
18153;DHT22;9202;51.578;7.734;2023-12-04T10:51:31;2.80;99.90
18153;DHT22;9202;51.578;7.734;2023-12-04T10:53:34;2.70;99.90
18153;DHT22;9202;51.578;7.734;2023-12-04T10:55:38;2.90;99.90
18153;DHT22;9202;51.578;7.734;2023-12-04T10:57:41;3.00;99.90
18153;DHT22;9202;51.578;7.734;2023-12-04T10:59:45;3.00;99.90
18153;DHT22;9202;51.578;7.734;2023-12-04T11:01:49;3.00;99.90
18153;DHT22;9202;51.578;7.734;2023-12-04T11:03:53;3.00;99.90
18153;DHT22;9202;51.578;7.734;2023-12-04T11:05:59;3.10;99.90
18153;DHT22;9202;51.578;7.734;2023-12-04T11:08:02;3.10;99.90
18153;DHT22;9202;51.578;7.734;2023-12-04T11:10:08;3.10;99.90
18153;DHT22;9202;51.578;7.734;2023-12-04T11:12:13;3.10;99.90
18153;DHT22;9202;51.578;7.734;2023-12-04T11:14:16;3.20;99.90
18153;DHT22;9202;51.578;7.734;2023-12-04T11:16:27;3.20;99.90
18153;DHT22;9202;51.578;7.734;2023-12-04T11:18:41;3.20;99.90
18153;DHT22;9202;51.578;7.734;2023-12-04T11:20:46;3.10;99.90
18153;DHT22;9202;51.578;7.734;2023-12-04T11:22:49;3.10;99.90
18153;DHT22;9202;51.578;7.734;2023-12-04T11:24:53;3.10;99.90
18153;DHT22;9202;51.578;7.734;2023-12-04T11:26:56;3.10;99.90
18153;DHT22;9202;51.578;7.734;2023-12-04T11:28:59;3.10;99.90
18153;DHT22;9202;51.578;7.734;2023-12-04T11:31:03;3.10;99.90
18153;DHT22;9202;51.578;7.734;2023-12-04T11:33:06;3.10;99.90
18153;DHT22;9202;51.578;7.734;2023-12-04T11:35:12;3.10;99.90
18153;DHT22;9202;51.578;7.734;2023-12-04T11:37:13;3.10;99.90
18153;DHT22;9202;51.578;7.734;2023-12-04T11:39:16;3.10;99.90
18153;DHT22;9202;51.578;7.734;2023-12-04T11:41:19;3.20;99.90
18153;DHT22;9202;51.578;7.734;2023-12-04T11:43:24;3.30;99.90
18153;DHT22;9202;51.578;7.734;2023-12-04T11:45:27;3.20;99.90
18153;DHT22;9202;51.578;7.734;2023-12-04T11:47:36;3.20;99.90
18153;DHT22;9202;51.578;7.734;2023-12-04T11:49:41;3.20;99.90
18153;DHT22;9202;51.578;7.734;2023-12-04T11:51:46;3.20;99.90
18153;DHT22;9202;51.578;7.734;2023-12-04T11:53:51;3.30;99.90
18153;DHT22;9202;51.578;7.734;2023-12-04T11:55:55;3.30;99.90
18153;DHT22;9202;51.578;7.734;2023-12-04T11:57:59;3.30;99.90
18153;DHT22;9202;51.578;7.734;2023-12-04T12:00:12;3.30;99.90
18153;DHT22;9202;51.578;7.734;2023-12-04T12:02:18;3.30;99.90
18153;DHT22;9202;51.578;7.734;2023-12-04T12:04:20;3.30;99.90
18153;DHT22;9202;51.578;7.734;2023-12-04T12:06:23;3.30;99.90
18153;DHT22;9202;51.578;7.734;2023-12-04T12:08:27;3.30;99.90
18153;DHT22;9202;51.578;7.734;2023-12-04T12:10:30;3.30;99.90
18153;DHT22;9202;51.578;7.734;2023-12-04T12:12:33;3.30;99.90
18153;DHT22;9202;51.578;7.734;2023-12-04T12:14:38;3.20;99.90
18153;DHT22;9202;51.578;7.734;2023-12-04T12:16:40;3.30;99.90
18153;DHT22;9202;51.578;7.734;2023-12-04T12:18:44;3.30;99.90
18153;DHT22;9202;51.578;7.734;2023-12-04T12:20:46;3.30;99.90
18153;DHT22;9202;51.578;7.734;2023-12-04T12:22:49;3.30;99.90
18153;DHT22;9202;51.578;7.734;2023-12-04T12:24:51;3.30;99.90
18153;DHT22;9202;51.578;7.734;2023-12-04T12:26:54;3.30;99.90
18153;DHT22;9202;51.578;7.734;2023-12-04T12:28:57;3.30;99.90
18153;DHT22;9202;51.578;7.734;2023-12-04T12:31:02;3.30;99.90
18153;DHT22;9202;51.578;7.734;2023-12-04T12:33:05;3.20;99.90
18153;DHT22;9202;51.578;7.734;2023-12-04T12:35:08;3.30;99.90
18153;DHT22;9202;51.578;7.734;2023-12-04T12:37:11;3.30;99.90
18153;DHT22;9202;51.578;7.734;2023-12-04T12:39:14;3.30;99.90
18153;DHT22;9202;51.578;7.734;2023-12-04T12:41:17;3.30;99.90
18153;DHT22;9202;51.578;7.734;2023-12-04T12:43:20;3.20;99.90
18153;DHT22;9202;51.578;7.734;2023-12-04T12:45:23;3.20;99.90
18153;DHT22;9202;51.578;7.734;2023-12-04T12:47:25;3.20;99.90
18153;DHT22;9202;51.578;7.734;2023-12-04T12:49:28;3.20;99.90
18153;DHT22;9202;51.578;7.734;2023-12-04T12:51:33;3.20;99.90
18153;DHT22;9202;51.578;7.734;2023-12-04T12:53:35;3.20;99.90
18153;DHT22;9202;51.578;7.734;2023-12-04T12:55:38;3.30;99.90
18153;DHT22;9202;51.578;7.734;2023-12-04T12:57:41;3.30;99.90
18153;DHT22;9202;51.578;7.734;2023-12-04T12:59:44;3.30;99.90
18153;DHT22;9202;51.578;7.734;2023-12-04T13:01:48;3.30;99.90
18153;DHT22;9202;51.578;7.734;2023-12-04T13:03:51;3.30;99.90
18153;DHT22;9202;51.578;7.734;2023-12-04T13:05:54;3.30;99.90
18153;DHT22;9202;51.578;7.734;2023-12-04T13:07:58;3.50;99.90
18153;DHT22;9202;51.578;7.734;2023-12-04T13:10:01;3.40;99.90
18153;DHT22;9202;51.578;7.734;2023-12-04T13:12:07;3.40;99.90
18153;DHT22;9202;51.578;7.734;2023-12-04T13:16:28;3.40;99.90
18153;DHT22;9202;51.578;7.734;2023-12-04T13:18:31;3.40;99.90
18153;DHT22;9202;51.578;7.734;2023-12-04T13:20:35;3.40;99.90
18153;DHT22;9202;51.578;7.734;2023-12-04T13:22:38;3.40;99.90
18153;DHT22;9202;51.578;7.734;2023-12-04T13:24:41;3.50;99.90
18153;DHT22;9202;51.578;7.734;2023-12-04T13:26:43;3.40;99.90
18153;DHT22;9202;51.578;7.734;2023-12-04T13:28:46;3.40;99.90
18153;DHT22;9202;51.578;7.734;2023-12-04T13:30:50;3.40;99.90
18153;DHT22;9202;51.578;7.734;2023-12-04T13:32:52;3.40;99.90
18153;DHT22;9202;51.578;7.734;2023-12-04T13:34:55;3.40;99.90
18153;DHT22;9202;51.578;7.734;2023-12-04T13:36:58;3.40;99.90